Time;durP1;ratioP1;P1;durP2;ratioP2;P2;SDS_P1;SDS_P2;PMS_P1;PMS_P2;Temp;Humidity;BMP_temperature;BMP_pressure;BME280_temperature;BME280_humidity;BME280_pressure;Samples;Min_cycle;Max_cycle;Signal;HPM_P1;HPM_P2
2023/07/26 00:00:10;;;;;;;10.55;2.08;;;;;;;13.77;94.96;100886.53;5016723;28;20046;-67
2023/07/26 00:02:39;;;;;;;3.13;1.70;;;;;;;13.79;94.60;100883.75;5021253;28;20041;-67
2023/07/26 00:05:05;;;;;;;5.57;2.03;;;;;;;13.80;94.21;100885.38;5010661;28;20064;-67
2023/07/26 00:07:30;;;;;;;3.85;1.58;;;;;;;13.79;94.02;100881.97;5026639;28;20056;-67
2023/07/26 00:09:56;;;;;;;4.93;2.10;;;;;;;13.82;93.46;100879.00;5027417;28;20037;-67
2023/07/26 00:12:21;;;;;;;3.33;1.98;;;;;;;13.82;93.09;100873.81;5007070;28;20068;-67
2023/07/26 00:14:47;;;;;;;3.63;1.60;;;;;;;13.85;92.70;100882.25;5019480;28;20037;-67
2023/07/26 00:17:12;;;;;;;4.47;1.70;;;;;;;13.89;92.19;100880.91;5022186;28;20033;-67
2023/07/26 00:19:38;;;;;;;4.95;1.50;;;;;;;13.91;91.75;100884.16;5023592;28;20688;-68
2023/07/26 00:22:03;;;;;;;3.70;1.73;;;;;;;13.91;91.86;100882.34;5004825;28;20091;-67
2023/07/26 00:24:29;;;;;;;3.97;2.00;;;;;;;13.91;91.63;100881.53;5024708;28;20137;-67
2023/07/26 00:26:54;;;;;;;3.67;1.50;;;;;;;13.89;91.87;100881.72;5017648;28;20037;-68
2023/07/26 00:29:20;;;;;;;2.63;1.80;;;;;;;13.88;92.07;100879.28;5023807;28;20059;-67
2023/07/26 00:31:45;;;;;;;3.35;1.63;;;;;;;13.84;92.40;100878.81;5019471;28;20049;-67
2023/07/26 00:34:11;;;;;;;3.35;1.63;;;;;;;13.81;92.36;100879.19;5006026;28;20033;-67
2023/07/26 00:36:36;;;;;;;8.63;2.10;;;;;;;13.81;92.38;100879.97;5020922;28;20041;-67
2023/07/26 00:39:03;;;;;;;3.63;1.92;;;;;;;13.76;92.41;100884.09;5022361;28;20041;-67
2023/07/26 00:41:28;;;;;;;7.03;1.90;;;;;;;13.75;92.38;100882.47;5022512;28;20615;-68
2023/07/26 00:43:54;;;;;;;1.90;1.70;;;;;;;13.72;92.08;100886.25;5023493;28;20040;-67
2023/07/26 00:46:20;;;;;;;4.30;2.10;;;;;;;13.72;91.98;100888.84;5026046;28;20041;-67
2023/07/26 00:48:45;;;;;;;4.30;1.98;;;;;;;13.74;91.82;100884.28;5009409;28;20017;-67
2023/07/26 00:51:11;;;;;;;4.57;1.80;;;;;;;13.75;91.31;100888.50;5004503;28;20396;-67
2023/07/26 00:53:37;;;;;;;4.53;2.17;;;;;;;13.77;90.78;100888.34;5007302;28;20033;-68
2023/07/26 00:56:03;;;;;;;4.28;1.88;;;;;;;13.77;90.58;100889.16;5006466;28;20535;-68
2023/07/26 00:58:28;;;;;;;2.47;1.52;;;;;;;13.81;90.35;100887.81;5027692;28;20025;-67
2023/07/26 01:00:54;;;;;;;4.55;1.73;;;;;;;13.82;90.63;100892.03;5022123;28;20033;-68
2023/07/26 01:03:20;;;;;;;2.40;1.70;;;;;;;13.84;90.80;100884.03;5012224;28;20502;-67
2023/07/26 01:06:19;;;;;;;3.90;1.92;;;;;;;13.85;90.92;100879.66;5026254;28;20088;-67
2023/07/26 01:09:01;;;;;;;4.38;2.42;;;;;;;13.82;91.06;100886.84;5025983;28;20064;-67
2023/07/26 01:11:45;;;;;;;5.27;1.93;;;;;;;13.83;91.43;100875.41;5021365;28;20033;-67
2023/07/26 01:14:25;;;;;;;2.42;1.45;;;;;;;13.85;91.55;100892.69;5024180;28;20072;-67
2023/07/26 01:16:51;;;;;;;3.13;1.80;;;;;;;13.83;91.45;100883.22;5022310;28;20037;-67
2023/07/26 01:19:16;;;;;;;4.20;2.47;;;;;;;13.82;91.58;100889.44;5019171;28;20034;-67
2023/07/26 01:21:42;;;;;;;2.88;2.15;;;;;;;13.80;91.84;100886.16;5007002;28;20042;-67
2023/07/26 01:24:07;;;;;;;3.80;1.85;;;;;;;13.79;92.05;100886.38;5021841;28;20034;-68
2023/07/26 01:26:33;;;;;;;4.25;2.17;;;;;;;13.76;91.98;100879.69;5020836;28;20045;-67
2023/07/26 01:28:58;;;;;;;3.63;2.13;;;;;;;13.76;91.96;100882.28;5026062;28;20064;-67
2023/07/26 01:31:24;;;;;;;4.53;1.70;;;;;;;13.76;91.95;100878.88;5020262;28;20041;-68
2023/07/26 01:33:52;;;;;;;4.78;2.40;;;;;;;13.76;92.13;100871.06;5025378;28;20028;-67
2023/07/26 01:36:23;;;;;;;4.22;2.10;;;;;;;13.74;92.35;100866.03;5023932;28;20522;-67
2023/07/26 01:38:49;;;;;;;2.53;2.03;;;;;;;13.74;92.48;100867.84;5009705;28;20064;-67
2023/07/26 01:41:16;;;;;;;3.90;1.98;;;;;;;13.73;92.32;100869.63;5022956;28;20179;-67
2023/07/26 01:43:43;;;;;;;3.97;1.90;;;;;;;13.73;92.29;100864.44;5023179;28;20064;-67
2023/07/26 01:46:12;;;;;;;4.25;1.90;;;;;;;13.74;92.23;100866.03;5021031;28;20045;-68
2023/07/26 01:48:38;;;;;;;4.75;1.90;;;;;;;13.75;92.02;100867.66;5009478;28;20373;-67
2023/07/26 01:51:05;;;;;;;3.15;2.20;;;;;;;13.74;91.77;100873.84;5005128;28;20661;-68
2023/07/26 01:53:31;;;;;;;7.47;2.67;;;;;;;13.74;91.56;100860.81;5024750;28;20030;-68
2023/07/26 01:55:57;;;;;;;3.90;2.53;;;;;;;13.73;91.64;100871.41;5024786;28;23031;-68
2023/07/26 01:58:22;;;;;;;6.13;1.92;;;;;;;13.73;91.53;100871.41;5009432;28;20037;-67
2023/07/26 02:00:48;;;;;;;3.22;2.20;;;;;;;13.70;91.53;100863.97;5020941;28;20046;-68
2023/07/26 02:03:13;;;;;;;5.03;2.35;;;;;;;13.69;91.52;100870.94;5024534;28;20029;-67
2023/07/26 02:05:46;;;;;;;4.93;2.13;;;;;;;13.70;91.47;100875.19;5007628;28;20041;-68
2023/07/26 02:08:13;;;;;;;3.10;2.00;;;;;;;13.69;91.41;100873.56;4990308;28;20036;-67
2023/07/26 02:10:39;;;;;;;3.00;1.98;;;;;;;13.71;91.31;100871.59;5007843;28;20041;-68
2023/07/26 02:13:04;;;;;;;4.38;2.20;;;;;;;13.71;91.34;100874.22;5009109;28;20052;-67
2023/07/26 02:15:31;;;;;;;4.72;2.33;;;;;;;13.70;91.16;100875.19;5027120;28;20086;-67
2023/07/26 02:17:57;;;;;;;5.10;2.67;;;;;;;13.71;91.07;100876.00;5022035;28;20445;-67
2023/07/26 02:20:22;;;;;;;4.13;1.98;;;;;;;13.72;91.04;100872.41;5006986;28;20037;-67
2023/07/26 02:22:48;;;;;;;3.83;2.35;;;;;;;13.72;90.83;100881.03;5023075;28;20052;-67
2023/07/26 02:25:14;;;;;;;3.35;1.90;;;;;;;13.71;90.76;100873.38;5023160;28;20042;-67
2023/07/26 02:27:40;;;;;;;4.63;2.10;;;;;;;13.72;90.60;100868.00;5021718;28;20103;-67
2023/07/26 02:30:06;;;;;;;3.83;2.35;;;;;;;13.73;90.52;100871.41;5012944;28;20079;-67
2023/07/26 02:32:32;;;;;;;4.78;2.28;;;;;;;13.72;90.50;100864.59;5027468;28;20053;-67
2023/07/26 02:34:57;;;;;;;5.05;2.42;;;;;;;13.70;90.58;100859.56;5024273;28;20056;-67
2023/07/26 02:37:23;;;;;;;4.15;2.10;;;;;;;13.70;90.57;100861.34;5024579;28;20034;-67
2023/07/26 02:39:48;;;;;;;3.40;2.30;;;;;;;13.68;90.74;100855.50;5023382;28;20079;-67
2023/07/26 02:42:14;;;;;;;5.15;2.10;;;;;;;13.67;90.83;100861.69;5007589;28;20037;-68
2023/07/26 02:44:40;;;;;;;4.43;2.30;;;;;;;13.67;90.74;100857.28;5003596;28;20286;-67
2023/07/26 02:47:07;;;;;;;4.93;1.80;;;;;;;13.67;90.81;100854.69;5022909;28;20042;-67
2023/07/26 02:49:32;;;;;;;7.15;2.28;;;;;;;13.69;90.53;100857.13;5021910;28;20036;-68
2023/07/26 02:51:58;;;;;;;3.67;2.00;;;;;;;13.74;90.31;100857.41;5007894;28;20033;-67
2023/07/26 02:54:24;;;;;;;6.38;2.60;;;;;;;13.71;90.32;100855.97;5004854;28;20112;-67
2023/07/26 02:56:49;;;;;;;4.30;2.30;;;;;;;13.67;90.38;100854.69;5022545;28;20049;-67
2023/07/26 02:59:15;;;;;;;4.47;1.60;;;;;;;13.66;90.16;100858.28;5023942;28;20049;-67
2023/07/26 03:01:40;;;;;;;3.42;2.28;;;;;;;13.68;90.24;100858.13;5020484;28;20095;-67
2023/07/26 03:04:06;;;;;;;3.92;2.65;;;;;;;13.68;89.98;100871.94;5029078;28;20041;-67
2023/07/26 03:06:31;;;;;;;5.93;2.60;;;;;;;13.77;90.47;100885.75;5026704;28;20068;-68
2023/07/26 03:08:57;;;;;;;9.85;3.55;;;;;;;13.86;94.39;100908.13;5026303;28;20083;-67
2023/07/26 03:11:23;;;;;;;9.77;3.60;;;;;;;13.74;97.92;100910.31;5009423;28;20040;-68
2023/07/26 03:13:49;;;;;;;10.25;4.82;;;;;;;13.44;100.00;100922.41;5009311;28;20041;-68
2023/07/26 03:16:16;;;;;;;7.45;4.00;;;;;;;13.35;100.00;100928.66;5022975;28;20052;-68
2023/07/26 03:18:42;;;;;;;7.22;4.40;;;;;;;13.08;100.00;100928.09;5025623;28;20049;-68
2023/07/26 03:21:07;;;;;;;8.98;4.20;;;;;;;13.04;100.00;100937.22;5024110;28;20384;-68
2023/07/26 03:23:34;;;;;;;16.25;4.35;;;;;;;13.00;100.00;100934.16;4996964;28;20407;-68
2023/07/26 03:26:02;;;;;;;8.95;4.47;;;;;;;12.90;100.00;100933.50;4993346;28;20045;-68
2023/07/26 03:28:28;;;;;;;8.85;4.50;;;;;;;12.92;100.00;100928.97;5026399;28;20116;-68
2023/07/26 03:30:53;;;;;;;7.20;4.00;;;;;;;12.90;100.00;100935.31;5007638;28;20104;-68
2023/07/26 03:33:19;;;;;;;7.70;4.38;;;;;;;12.90;100.00;100932.72;5024719;28;20683;-68
2023/07/26 03:35:44;;;;;;;7.75;4.40;;;;;;;12.84;100.00;100931.59;5010632;28;21775;-68
2023/07/26 03:38:10;;;;;;;6.03;4.07;;;;;;;12.83;100.00;100928.19;5010010;28;20038;-67
2023/07/26 03:40:36;;;;;;;6.47;3.67;;;;;;;12.82;100.00;100926.53;5011523;28;20045;-68
2023/07/26 03:43:01;;;;;;;5.53;3.78;;;;;;;12.87;100.00;100933.06;5010532;28;20041;-68
2023/07/26 03:45:28;;;;;;;6.85;3.97;;;;;;;12.83;100.00;100920.38;5027101;28;20041;-68
2023/07/26 03:47:54;;;;;;;5.70;3.60;;;;;;;12.84;100.00;100921.19;5024738;28;20146;-68
2023/07/26 03:50:20;;;;;;;4.28;3.20;;;;;;;12.83;100.00;100919.56;5009931;28;20036;-68
2023/07/26 03:52:46;;;;;;;7.30;4.03;;;;;;;12.82;100.00;100910.13;5024889;28;20052;-69
2023/07/26 03:55:11;;;;;;;4.45;3.30;;;;;;;12.86;100.00;100921.81;5009288;28;20929;-68
2023/07/26 03:57:37;;;;;;;5.53;3.22;;;;;;;12.82;100.00;100910.94;5010610;28;20476;-68
2023/07/26 04:00:04;;;;;;;5.60;2.70;;;;;;;12.84;100.00;100905.56;5027269;28;20025;-68
2023/07/26 04:02:37;;;;;;;5.38;3.40;;;;;;;12.89;100.00;100910.28;5025099;28;20053;-68
2023/07/26 04:05:03;;;;;;;3.83;2.90;;;;;;;12.93;100.00;100920.19;5026018;28;20026;-68
2023/07/26 04:07:29;;;;;;;4.15;2.90;;;;;;;12.97;100.00;100903.22;5024105;28;20103;-68
2023/07/26 04:09:54;;;;;;;3.03;2.50;;;;;;;13.01;100.00;100912.31;5022964;28;20396;-68
2023/07/26 04:12:20;;;;;;;4.40;2.78;;;;;;;13.04;100.00;100913.78;5009512;28;20044;-68
2023/07/26 04:14:46;;;;;;;6.18;2.92;;;;;;;13.03;100.00;100915.59;5023445;28;20049;-68
2023/07/26 04:17:12;;;;;;;5.13;2.47;;;;;;;13.05;100.00;100911.03;5026133;28;20029;-68
2023/07/26 04:19:37;;;;;;;4.10;2.40;;;;;;;13.08;100.00;100914.28;5027833;28;20754;-68
2023/07/26 04:22:03;;;;;;;5.93;2.35;;;;;;;13.11;100.00;100911.31;5023130;28;20037;-68
2023/07/26 04:24:28;;;;;;;5.40;2.78;;;;;;;13.09;100.00;100918.47;5026786;28;20037;-68
2023/07/26 04:26:54;;;;;;;6.72;2.78;;;;;;;13.08;100.00;100919.47;5025914;28;20045;-68
2023/07/26 04:29:19;;;;;;;4.20;2.40;;;;;;;13.04;100.00;100925.00;5027543;28;20033;-68
2023/07/26 04:31:45;;;;;;;3.80;2.40;;;;;;;13.05;100.00;100923.22;5007018;28;20083;-68
2023/07/26 04:34:12;;;;;;;4.10;2.53;;;;;;;13.07;100.00;100920.44;5027482;28;20506;-68
2023/07/26 04:36:38;;;;;;;6.20;2.40;;;;;;;13.08;100.00;100925.50;5023165;28;20029;-68
2023/07/26 04:39:03;;;;;;;4.40;3.25;;;;;;;13.08;100.00;100922.88;5026422;28;20369;-68
2023/07/26 04:41:29;;;;;;;4.10;2.53;;;;;;;13.08;100.00;100929.88;5008302;28;20205;-68
2023/07/26 04:43:54;;;;;;;2.72;2.25;;;;;;;13.09;100.00;100921.91;5009521;28;20029;-67
2023/07/26 04:46:20;;;;;;;4.05;2.67;;;;;;;13.09;100.00;100932.34;5008805;28;20037;-68
2023/07/26 04:48:45;;;;;;;4.55;2.55;;;;;;;13.11;100.00;100930.38;5025092;28;20034;-69
2023/07/26 04:51:11;;;;;;;5.40;2.38;;;;;;;13.14;100.00;100930.00;5022702;28;20669;-68
2023/07/26 04:53:36;;;;;;;5.45;2.50;;;;;;;13.18;100.00;100926.09;5027056;28;20120;-69
2023/07/26 04:56:02;;;;;;;7.22;2.42;;;;;;;13.25;100.00;100931.44;5020618;28;20037;-69
2023/07/26 04:58:27;;;;;;;4.90;2.60;;;;;;;13.32;100.00;100921.19;5022709;28;20583;-68
2023/07/26 05:00:53;;;;;;;3.25;2.40;;;;;;;13.34;100.00;100929.66;5005903;28;20040;-69
2023/07/26 05:03:18;;;;;;;7.05;3.13;;;;;;;13.39;100.00;100937.72;5026165;28;20471;-69
2023/07/26 05:05:50;;;;;;;3.90;2.88;;;;;;;13.43;100.00;100936.44;5024570;28;20050;-68
2023/07/26 05:08:15;;;;;;;3.55;2.58;;;;;;;13.47;100.00;100936.88;5006798;28;20017;-68
2023/07/26 05:10:41;;;;;;;9.45;3.05;;;;;;;13.48;100.00;100931.50;5020062;28;20025;-69
2023/07/26 05:13:06;;;;;;;6.95;3.05;;;;;;;13.50;100.00;100933.94;5024129;28;20119;-69
2023/07/26 05:15:32;;;;;;;4.90;2.72;;;;;;;13.53;100.00;100939.63;5023939;28;20041;-68
2023/07/26 05:17:57;;;;;;;6.47;3.22;;;;;;;13.60;100.00;100935.34;5022308;28;20036;-68
2023/07/26 05:20:22;;;;;;;5.53;2.80;;;;;;;13.69;100.00;100935.28;5024616;28;20752;-68
2023/07/26 05:22:48;;;;;;;8.90;3.97;;;;;;;13.80;100.00;100933.06;5021867;28;20037;-67
2023/07/26 05:25:13;;;;;;;5.47;3.90;;;;;;;13.89;100.00;100943.47;5004234;28;20535;-69
2023/07/26 05:27:39;;;;;;;6.20;4.00;;;;;;;13.91;100.00;100937.09;5006122;28;20041;-68
2023/07/26 05:30:05;;;;;;;5.75;3.30;;;;;;;13.92;100.00;100940.50;5022534;28;20468;-68
2023/07/26 05:32:30;;;;;;;9.05;4.70;;;;;;;13.96;100.00;100942.59;5021332;28;20038;-68
2023/07/26 05:34:57;;;;;;;8.35;4.22;;;;;;;13.95;100.00;100937.56;4992402;28;21246;-68
2023/07/26 05:37:23;;;;;;;7.53;4.40;;;;;;;13.95;100.00;100930.53;5023920;28;20079;-68
2023/07/26 05:39:49;;;;;;;6.75;4.30;;;;;;;13.99;100.00;100941.41;5019962;28;20036;-68
2023/07/26 05:42:15;;;;;;;6.63;4.30;;;;;;;14.01;100.00;100929.84;5023380;28;20042;-68
2023/07/26 05:44:40;;;;;;;9.05;4.55;;;;;;;14.00;100.00;100932.63;5023568;28;20032;-68
2023/07/26 05:47:06;;;;;;;5.53;3.67;;;;;;;14.07;100.00;100930.13;5023142;28;20484;-68
2023/07/26 05:49:31;;;;;;;7.07;4.78;;;;;;;14.15;100.00;100928.25;5026639;28;20391;-68
2023/07/26 05:51:57;;;;;;;6.00;4.22;;;;;;;14.20;100.00;100923.34;5024584;28;20155;-68
2023/07/26 05:54:23;;;;;;;9.63;5.10;;;;;;;14.20;100.00;100922.50;5024878;28;20561;-68
2023/07/26 05:56:48;;;;;;;9.80;4.97;;;;;;;14.24;100.00;100926.41;5024052;28;20037;-68
2023/07/26 05:59:14;;;;;;;9.95;4.78;;;;;;;14.34;100.00;100926.16;5025231;28;20036;-68
2023/07/26 06:01:39;;;;;;;6.75;4.40;;;;;;;14.27;100.00;100923.41;4986547;28;20087;-68
2023/07/26 06:04:05;;;;;;;8.35;4.60;;;;;;;14.27;100.00;100930.44;5021154;28;20688;-68
2023/07/26 06:06:30;;;;;;;7.57;4.38;;;;;;;14.31;100.00;100927.28;5021427;28;20050;-68
2023/07/26 06:08:57;;;;;;;7.63;4.28;;;;;;;14.32;100.00;100926.31;5023889;28;20079;-68
2023/07/26 06:11:22;;;;;;;7.45;4.93;;;;;;;14.44;100.00;100931.91;5020466;28;20424;-69
2023/07/26 06:13:48;;;;;;;7.40;4.60;;;;;;;14.76;100.00;100937.81;5022809;28;20038;-68
2023/07/26 06:16:13;;;;;;;9.13;4.85;;;;;;;14.82;100.00;100938.88;5021058;28;20989;-68
2023/07/26 06:18:39;;;;;;;7.72;4.57;;;;;;;14.81;100.00;100939.91;5022114;28;20041;-68
2023/07/26 06:21:04;;;;;;;9.27;6.00;;;;;;;14.83;100.00;100933.50;5021347;28;20512;-68
2023/07/26 06:23:30;;;;;;;8.98;5.38;;;;;;;14.99;100.00;100933.31;4997649;28;20121;-68
2023/07/26 06:25:55;;;;;;;9.77;5.20;;;;;;;15.06;100.00;100940.41;5020075;28;20063;-68
2023/07/26 06:28:21;;;;;;;7.65;5.18;;;;;;;15.27;100.00;100935.22;5023365;28;20041;-68
2023/07/26 06:30:46;;;;;;;17.00;5.10;;;;;;;15.48;99.88;100936.25;5006397;28;20128;-68
2023/07/26 06:33:12;;;;;;;12.43;6.68;;;;;;;15.67;99.88;100940.91;5006497;28;20153;-67
2023/07/26 06:35:37;;;;;;;10.43;5.70;;;;;;;15.95;99.98;100935.78;5022502;28;20045;-70
2023/07/26 06:38:03;;;;;;;11.90;5.03;;;;;;;16.11;96.96;100941.72;5007988;28;20120;-68
2023/07/26 06:40:29;;;;;;;10.07;5.43;;;;;;;16.15;96.30;100943.75;5026152;28;20033;-68
2023/07/26 06:42:54;;;;;;;7.88;4.60;;;;;;;16.18;96.47;100944.38;5023856;28;20540;-68
2023/07/26 06:45:22;;;;;;;10.55;5.78;;;;;;;16.25;93.87;100948.66;5012252;28;20495;-69
2023/07/26 06:47:48;;;;;;;9.57;4.72;;;;;;;16.54;94.73;100945.06;5022987;28;20033;-69
2023/07/26 06:50:13;;;;;;;11.63;4.88;;;;;;;16.72;95.09;100956.84;5027257;28;20032;-70
2023/07/26 06:52:39;;;;;;;10.80;5.32;;;;;;;16.80;93.13;100946.22;5028067;28;20167;-69
2023/07/26 06:55:05;;;;;;;9.68;4.50;;;;;;;17.06;92.39;100952.59;5028723;28;20614;-70
2023/07/26 06:57:31;;;;;;;10.88;4.75;;;;;;;17.23;91.47;100953.06;5028926;28;20033;-69
2023/07/26 06:59:56;;;;;;;10.05;4.47;;;;;;;17.43;89.38;100959.19;5029059;28;20068;-69
2023/07/26 07:02:22;;;;;;;8.77;4.93;;;;;;;17.60;88.93;100954.41;5010220;28;20049;-69
2023/07/26 07:04:47;;;;;;;12.60;5.28;;;;;;;17.92;87.82;100949.44;5027629;28;20029;-69
2023/07/26 07:07:13;;;;;;;7.60;4.78;;;;;;;18.23;86.04;100948.00;5027376;28;20034;-69
2023/07/26 07:09:38;;;;;;;13.50;4.57;;;;;;;18.49;84.02;100942.72;5025135;28;20051;-69
2023/07/26 07:12:04;;;;;;;15.38;4.22;;;;;;;18.77;83.83;100957.44;5025868;28;20049;-68
2023/07/26 07:14:29;;;;;;;11.40;4.60;;;;;;;19.09;82.88;100946.25;5011504;28;20034;-69
2023/07/26 07:16:55;;;;;;;11.02;4.57;;;;;;;18.84;80.34;100947.75;5023023;28;20037;-69
2023/07/26 07:19:20;;;;;;;12.73;4.65;;;;;;;18.77;80.36;100952.16;5025499;28;20494;-69
2023/07/26 07:21:46;;;;;;;9.20;3.97;;;;;;;18.86;79.50;100953.59;5026760;28;20125;-69
2023/07/26 07:24:12;;;;;;;9.50;5.40;;;;;;;19.13;80.44;100961.38;5025921;28;20038;-69
2023/07/26 07:26:38;;;;;;;10.20;4.28;;;;;;;19.27;79.51;100956.88;5025114;28;20040;-69
2023/07/26 07:29:03;;;;;;;9.73;3.90;;;;;;;19.16;81.14;100960.97;5032203;28;20226;-69
2023/07/26 07:31:29;;;;;;;7.63;3.63;;;;;;;19.42;77.45;100959.22;5026100;28;20057;-69
2023/07/26 07:33:54;;;;;;;9.05;4.45;;;;;;;19.48;80.55;100966.28;5024047;28;20041;-69
2023/07/26 07:36:20;;;;;;;9.32;3.78;;;;;;;19.84;78.20;100964.88;5023352;28;20535;-69
2023/07/26 07:38:46;;;;;;;10.10;4.90;;;;;;;20.30;74.83;100968.13;5026464;28;20694;-69
2023/07/26 07:41:13;;;;;;;11.43;4.68;;;;;;;20.70;74.59;100957.25;5025786;28;20041;-69
2023/07/26 07:43:38;;;;;;;13.15;4.20;;;;;;;21.00;71.74;100955.50;5024229;28;20135;-69
2023/07/26 07:46:04;;;;;;;13.48;4.90;;;;;;;21.13;73.58;100951.88;5024962;28;20045;-70
2023/07/26 07:48:30;;;;;;;9.80;4.70;;;;;;;21.66;69.52;100957.47;5012256;28;20045;-70
2023/07/26 07:50:56;;;;;;;13.85;4.20;;;;;;;21.85;69.59;100956.38;5025317;28;20033;-69
2023/07/26 07:53:22;;;;;;;14.15;4.65;;;;;;;21.96;70.41;100950.31;5007955;28;20029;-69
2023/07/26 07:55:47;;;;;;;8.90;4.22;;;;;;;21.48;70.60;100958.34;4995019;28;20033;-70
2023/07/26 07:58:13;;;;;;;13.27;4.85;;;;;;;21.34;71.88;100962.97;5010633;28;20060;-69
2023/07/26 08:00:38;;;;;;;12.55;5.75;;;;;;;20.83;72.58;100958.94;5028586;28;20033;-70
2023/07/26 08:03:05;;;;;;;13.25;5.30;;;;;;;20.41;75.57;100962.16;5027345;28;20605;-70
2023/07/26 08:05:32;;;;;;;11.35;5.35;;;;;;;20.07;75.86;100960.84;5026966;28;20072;-69
2023/07/26 08:07:57;;;;;;;12.02;5.85;;;;;;;19.66;78.90;100960.28;5024629;28;20029;-70
2023/07/26 08:10:23;;;;;;;9.32;4.68;;;;;;;19.73;79.02;100965.53;5027719;28;20088;-69
2023/07/26 08:12:48;;;;;;;10.80;5.53;;;;;;;19.45;79.09;100974.56;5005900;28;20041;-70
2023/07/26 08:15:14;;;;;;;11.90;6.07;;;;;;;19.41;80.80;100976.81;5027086;28;20045;-69
2023/07/26 08:17:40;;;;;;;12.52;5.03;;;;;;;19.53;81.41;100982.22;5012126;28;20158;-69
2023/07/26 08:20:06;;;;;;;13.90;5.32;;;;;;;19.88;78.94;100981.84;4994026;28;20037;-69
2023/07/26 08:22:31;;;;;;;13.82;5.22;;;;;;;19.62;80.09;100974.88;5025553;28;20091;-70
2023/07/26 08:24:57;;;;;;;15.43;5.00;;;;;;;19.41;78.68;100983.91;5027599;28;20499;-69
2023/07/26 08:27:22;;;;;;;12.35;5.20;;;;;;;19.40;78.06;100980.47;5023548;28;20041;-70
2023/07/26 08:29:48;;;;;;;11.00;4.88;;;;;;;19.19;78.48;100978.97;5025513;28;20055;-69
2023/07/26 08:32:13;;;;;;;10.95;5.95;;;;;;;18.92;80.95;100972.97;5026145;28;20083;-69
2023/07/26 08:34:39;;;;;;;13.80;5.60;;;;;;;18.92;79.65;100985.31;5024870;28;20045;-70
2023/07/26 08:37:05;;;;;;;10.68;4.95;;;;;;;18.95;80.66;100975.19;5027008;28;20044;-70
2023/07/26 08:39:30;;;;;;;10.15;4.93;;;;;;;19.22;81.51;100983.78;5010190;28;20159;-69
2023/07/26 08:41:56;;;;;;;11.80;5.78;;;;;;;19.00;81.03;100983.25;5024869;28;20091;-69
2023/07/26 08:44:24;;;;;;;11.68;5.07;;;;;;;18.94;81.24;100980.66;5024168;28;20056;-69
2023/07/26 08:46:51;;;;;;;15.32;5.65;;;;;;;18.89;81.97;100980.47;5010648;28;20847;-69
2023/07/26 08:49:16;;;;;;;12.18;6.72;;;;;;;18.76;80.82;100978.63;5008241;28;20029;-69
2023/07/26 08:51:43;;;;;;;10.95;5.40;;;;;;;18.54;83.94;100978.09;5008580;28;20680;-69
2023/07/26 08:54:09;;;;;;;8.52;5.43;;;;;;;18.74;83.56;100978.03;5009362;28;20030;-69
2023/07/26 08:56:35;;;;;;;11.20;5.50;;;;;;;18.97;82.60;100973.16;5024123;28;20062;-70
2023/07/26 08:59:01;;;;;;;9.30;5.22;;;;;;;18.99;79.67;100968.50;5009969;28;20037;-69
2023/07/26 09:01:27;;;;;;;16.67;6.05;;;;;;;18.64;81.95;100965.34;5003689;28;20037;-69
2023/07/26 09:03:53;;;;;;;7.88;4.88;;;;;;;18.53;81.69;100961.50;5008388;28;20522;-70
2023/07/26 09:06:19;;;;;;;15.57;5.72;;;;;;;18.39;84.43;100965.19;5021536;28;20045;-69
2023/07/26 09:08:46;;;;;;;12.90;6.40;;;;;;;18.33;85.87;100965.97;5023121;28;20043;-69
2023/07/26 09:11:20;;;;;;;13.55;6.10;;;;;;;18.26;86.73;100966.78;5001516;28;20113;-69
2023/07/26 09:13:58;;;;;;;11.75;6.38;;;;;;;18.18;87.25;100960.97;5021730;28;20128;-69
2023/07/26 09:16:31;;;;;;;11.65;5.00;;;;;;;18.03;88.67;100961.16;5023504;28;20033;-70
2023/07/26 09:19:02;;;;;;;12.68;6.40;;;;;;;18.06;88.90;100950.25;5025527;28;20033;-69
2023/07/26 09:21:33;;;;;;;13.07;6.18;;;;;;;18.03;89.86;100955.91;5025831;28;20075;-69
2023/07/26 09:24:01;;;;;;;15.50;6.05;;;;;;;18.06;89.22;100958.94;5023711;28;20020;-69
2023/07/26 09:26:40;;;;;;;13.75;5.75;;;;;;;18.12;88.18;100946.84;5020060;28;20037;-69
2023/07/26 09:29:11;;;;;;;11.82;6.03;;;;;;;18.07;87.13;100950.03;5028987;28;20052;-69
2023/07/26 09:31:38;;;;;;;10.07;5.22;;;;;;;18.07;86.69;100952.66;5020594;28;20034;-70
2023/07/26 09:34:08;;;;;;;12.43;5.93;;;;;;;18.13;84.93;100955.50;5023345;28;20120;-69
2023/07/26 09:36:44;;;;;;;11.57;5.32;;;;;;;18.17;84.05;100962.75;5007887;28;20045;-70
2023/07/26 09:39:12;;;;;;;11.70;5.45;;;;;;;18.22;84.33;100954.28;4990321;28;20037;-69
2023/07/26 09:41:37;;;;;;;11.02;5.45;;;;;;;18.32;81.82;100949.44;5006126;28;20128;-69
2023/07/26 09:44:12;;;;;;;12.05;5.43;;;;;;;18.33;81.54;100956.31;5023123;28;20116;-69
2023/07/26 09:46:56;;;;;;;9.00;4.93;;;;;;;18.83;81.03;100954.00;5004853;28;20041;-70
2023/07/26 09:49:23;;;;;;;11.15;4.78;;;;;;;19.06;79.17;100958.78;5008320;28;20087;-70
2023/07/26 09:51:53;;;;;;;7.88;4.88;;;;;;;19.45;76.37;100949.06;5007549;28;20564;-69
2023/07/26 09:54:24;;;;;;;9.40;4.75;;;;;;;20.06;73.30;100943.44;5006140;28;20120;-73
2023/07/26 09:56:53;;;;;;;10.23;5.07;;;;;;;20.58;70.17;100938.69;5005470;28;20030;-69
2023/07/26 09:59:19;;;;;;;8.25;5.32;;;;;;;20.38;70.49;100939.72;5022885;28;20033;-68
2023/07/26 10:01:45;;;;;;;11.57;5.65;;;;;;;20.19;72.33;100938.88;5021846;28;20064;-69
2023/07/26 10:04:14;;;;;;;15.40;5.75;;;;;;;20.10;72.74;100934.91;5020603;28;20446;-69
2023/07/26 10:06:42;;;;;;;8.77;4.05;;;;;;;20.33;73.46;100929.03;5018227;28;20080;-69
2023/07/26 10:09:15;;;;;;;7.55;4.00;;;;;;;19.93;72.33;100928.56;5023423;28;20049;-70
2023/07/26 10:11:42;;;;;;;9.82;4.90;;;;;;;19.70;74.16;100940.44;5023164;28;20060;-69
2023/07/26 10:14:10;;;;;;;9.80;4.97;;;;;;;19.64;75.74;100949.97;5019736;28;21942;-70
2023/07/26 10:16:36;;;;;;;12.25;5.55;;;;;;;19.96;78.51;100943.91;5021071;28;20512;-70
2023/07/26 10:19:03;;;;;;;13.05;4.82;;;;;;;19.83;75.80;100944.81;5024909;28;20812;-70
2023/07/26 10:21:30;;;;;;;8.55;4.68;;;;;;;20.17;74.56;100940.09;5005131;28;20067;-70
2023/07/26 10:23:57;;;;;;;10.93;4.95;;;;;;;20.67;72.72;100936.63;5021507;28;20033;-70
2023/07/26 10:26:23;;;;;;;5.70;3.35;;;;;;;21.10;71.05;100941.78;5020622;28;20377;-70
2023/07/26 10:28:48;;;;;;;5.65;2.72;;;;;;;21.49;67.57;100938.84;4992353;28;20032;-70
2023/07/26 10:31:14;;;;;;;6.38;3.13;;;;;;;21.51;64.04;100940.25;5020449;28;20216;-70
2023/07/26 10:33:44;;;;;;;6.20;2.78;;;;;;;21.53;63.59;100943.47;5023805;28;20036;-70
2023/07/26 10:36:10;;;;;;;7.00;2.83;;;;;;;21.67;64.49;100938.00;5006831;28;20431;-69
2023/07/26 10:38:40;;;;;;;5.32;3.22;;;;;;;21.61;66.33;100944.19;5027540;28;20041;-70
2023/07/26 10:41:21;;;;;;;7.57;2.83;;;;;;;21.60;65.30;100951.25;5021941;28;20079;-70
2023/07/26 10:43:49;;;;;;;7.90;3.13;;;;;;;21.52;63.67;100943.69;5019361;28;20029;-70
2023/07/26 10:46:15;;;;;;;8.93;3.17;;;;;;;21.60;63.89;100932.00;5005496;28;20141;-71
2023/07/26 10:48:41;;;;;;;11.10;3.75;;;;;;;21.52;66.07;100930.50;5021736;28;20487;-70
2023/07/26 10:51:32;;;;;;;5.18;2.97;;;;;;;21.48;63.74;100938.06;5021208;28;20045;-70
2023/07/26 10:54:04;;;;;;;6.68;3.40;;;;;;;21.20;66.00;100942.03;5005914;28;20116;-70
2023/07/26 10:56:33;;;;;;;6.65;3.90;;;;;;;20.89;66.64;100939.59;5008425;28;20076;-70
2023/07/26 10:59:04;;;;;;;13.13;3.95;;;;;;;20.82;66.23;100939.69;5026356;28;20041;-71
2023/07/26 11:01:41;;;;;;;7.50;3.60;;;;;;;20.63;66.53;100932.81;5016134;28;20080;-70
2023/07/26 11:04:14;;;;;;;7.57;3.60;;;;;;;20.40;67.36;100932.41;5021782;28;20030;-70
2023/07/26 11:06:55;;;;;;;9.30;3.53;;;;;;;20.33;68.15;100928.22;5007821;28;20629;-70
2023/07/26 11:09:25;;;;;;;9.52;4.30;;;;;;;20.27;64.81;100929.91;5017356;28;20079;-69
2023/07/26 11:12:02;;;;;;;8.02;3.20;;;;;;;20.49;67.09;100916.31;4990654;28;20403;-70
2023/07/26 11:14:31;;;;;;;10.60;3.63;;;;;;;21.28;64.85;100919.03;5006789;28;20084;-70
2023/07/26 11:16:58;;;;;;;5.13;3.08;;;;;;;21.66;66.24;100917.91;5024059;28;20045;-70
2023/07/26 11:19:24;;;;;;;7.55;3.42;;;;;;;22.01;65.15;100914.50;5017982;28;20096;-69